Language selection

My Weather Profile Weather Topics  | 

Lake Nipigon: Past 24 Hour Conditions

 

Kenora Airport

06:00 PM CST 05 February 2023
Disclaimer

This table is a summary of hourly weather conditions for the past 24 hours.
Please note that these observations might not always be representative of weather conditions over their associated marine area.

Date / Time
(CST)
Wind(knots) Conditions Visibility(km) Pressure(kPa) Air tempC) Relative humidity(%) Dew pointC) Wind Chill
05 February 2023
18:00 S 6 Mainly Clear 32 101.9 -13 76 -17 -20
17:00 SSW 5 Mainly Sunny 32 101.9 -13 73 -16 -18
16:00 SSW 5 Mainly Sunny 32 101.8 -12 72 -16 -18
15:00 SSW 3 Partly Cloudy 32 101.8 -12 73 -16 -16
14:00 WSW 5 Mostly Cloudy 32 101.9 -13 77 -16 -18
13:00 NW 2 Cloudy 32 101.9 -13 77 -16 -15
12:00 WNW 4 Cloudy 32 102.0 -14 77 -17 -20
11:00 NW 5 Cloudy 32 102.0 -15 79 -18 -21
10:00 NW 4 Cloudy 32 101.9 -16 80 -18 -20
9:00 NNW 8 Mostly Cloudy 32 101.8 -16 83 -18 -24
8:00 NW 5 Mostly Cloudy 32 101.8 -16 83 -19 -23
7:00 NW 5 Light Snow 32 101.7 -17 84 -19 -23
6:00 NW 5 Light Snow 32 101.7 -17 84 -19 -23
5:00 NW 7 Light Snow 32 101.6 -17 85 -19 -24
4:00 NW 5 Light Snow 32 101.5 -16 85 -18 -22
3:00 NNW 4 Light Snow 32 101.4 -16 86 -18 -21
2:00 NW 4 Light Snow 24 101.4 -15 86 -17 -20
1:00 NNW 4 Light Snow 19 101.4 -14 84 -16 -19
0:00 NW 3 Light Snow 19 101.4 -14 84 -16 -18
04 February 2023
23:00 NW 3 Light Snow 32 101.3 -14 83 -17 -18
22:00 NW 2 Light Snow 32 101.3 -14 81 -17 -16
21:00 N 3 Light Snow 32 101.2 -14 84 -16 -18
20:00 N 3 Light Snow 32 101.2 -14 86 -16 -18
19:00 N 2 Light Snow 32 101.1 -14 84 -16 -17
18:00 NW 3 Light Snow 16 101.1 -14 83 -16 -18

Zoom-in to make a selection

Map of Great Lakes - Lake Superior marine weather areas Mid Superior - 45001 East Superior - 45004 West Superior - 45006 Slate Island - 45136 Lake Of the Woods - 45148 Kenora Airport Royal Island Armstrong Airport Caribou Island Marathon Airport Pukaskwa National Park Thunder Bay Airport Welcome Island Little Flatland Island Sault Ste. Marie Airport Wawa Airport
Legend:
buoy Buoy
land station Land Station

Great Lakes - Lake Superior Area

Another Region

What we are doing

Date modified: